sensor_id;sensor_type;location;lat;lon;timestamp;P1;durP1;ratioP1;P2;durP2;ratioP2
2674;SDS011;1347;42.122;24.746;2024-03-17T00:02:14;19.77;;;15.77;;
2674;SDS011;1347;42.122;24.746;2024-03-17T00:04:40;17.87;;;15.87;;
2674;SDS011;1347;42.122;24.746;2024-03-17T00:07:09;20.57;;;16.23;;
2674;SDS011;1347;42.122;24.746;2024-03-17T00:09:36;19.30;;;15.60;;
2674;SDS011;1347;42.122;24.746;2024-03-17T00:12:01;22.43;;;17.03;;
2674;SDS011;1347;42.122;24.746;2024-03-17T00:14:28;20.57;;;17.00;;
2674;SDS011;1347;42.122;24.746;2024-03-17T00:16:54;20.67;;;16.47;;
2674;SDS011;1347;42.122;24.746;2024-03-17T00:19:23;18.40;;;16.40;;
2674;SDS011;1347;42.122;24.746;2024-03-17T00:21:49;24.47;;;17.20;;
2674;SDS011;1347;42.122;24.746;2024-03-17T00:24:18;21.70;;;17.90;;
2674;SDS011;1347;42.122;24.746;2024-03-17T00:26:45;25.53;;;20.60;;
2674;SDS011;1347;42.122;24.746;2024-03-17T00:29:12;22.17;;;16.43;;
2674;SDS011;1347;42.122;24.746;2024-03-17T00:31:38;20.27;;;16.00;;
2674;SDS011;1347;42.122;24.746;2024-03-17T00:34:04;23.23;;;18.37;;
2674;SDS011;1347;42.122;24.746;2024-03-17T00:36:30;29.47;;;21.67;;
2674;SDS011;1347;42.122;24.746;2024-03-17T00:38:57;28.30;;;21.53;;
2674;SDS011;1347;42.122;24.746;2024-03-17T00:41:24;31.60;;;24.57;;
2674;SDS011;1347;42.122;24.746;2024-03-17T00:43:51;29.03;;;22.57;;
2674;SDS011;1347;42.122;24.746;2024-03-17T00:46:17;27.63;;;20.87;;
2674;SDS011;1347;42.122;24.746;2024-03-17T00:48:46;27.43;;;21.90;;
2674;SDS011;1347;42.122;24.746;2024-03-17T00:51:13;29.77;;;22.53;;
2674;SDS011;1347;42.122;24.746;2024-03-17T00:53:40;26.23;;;20.37;;
2674;SDS011;1347;42.122;24.746;2024-03-17T00:56:05;26.90;;;21.70;;
2674;SDS011;1347;42.122;24.746;2024-03-17T00:58:34;31.00;;;20.83;;
2674;SDS011;1347;42.122;24.746;2024-03-17T01:00:59;30.53;;;21.80;;
2674;SDS011;1347;42.122;24.746;2024-03-17T01:03:26;31.23;;;22.97;;
2674;SDS011;1347;42.122;24.746;2024-03-17T01:05:53;28.43;;;21.33;;
2674;SDS011;1347;42.122;24.746;2024-03-17T01:08:20;34.43;;;22.03;;
2674;SDS011;1347;42.122;24.746;2024-03-17T01:10:46;29.97;;;20.87;;
2674;SDS011;1347;42.122;24.746;2024-03-17T01:13:15;32.37;;;20.80;;
2674;SDS011;1347;42.122;24.746;2024-03-17T01:15:43;33.03;;;20.83;;
2674;SDS011;1347;42.122;24.746;2024-03-17T01:18:09;30.00;;;20.53;;
2674;SDS011;1347;42.122;24.746;2024-03-17T01:20:36;25.67;;;18.83;;
2674;SDS011;1347;42.122;24.746;2024-03-17T01:23:04;25.90;;;19.93;;
2674;SDS011;1347;42.122;24.746;2024-03-17T01:25:30;29.13;;;22.00;;
2674;SDS011;1347;42.122;24.746;2024-03-17T01:27:58;25.53;;;19.53;;
2674;SDS011;1347;42.122;24.746;2024-03-17T01:30:23;26.43;;;20.20;;
2674;SDS011;1347;42.122;24.746;2024-03-17T01:32:52;27.97;;;24.90;;
2674;SDS011;1347;42.122;24.746;2024-03-17T01:35:17;31.00;;;22.57;;
2674;SDS011;1347;42.122;24.746;2024-03-17T01:37:45;31.80;;;22.13;;
2674;SDS011;1347;42.122;24.746;2024-03-17T01:40:11;25.00;;;21.07;;
2674;SDS011;1347;42.122;24.746;2024-03-17T01:42:38;28.30;;;20.00;;
2674;SDS011;1347;42.122;24.746;2024-03-17T01:45:18;26.30;;;19.07;;
2674;SDS011;1347;42.122;24.746;2024-03-17T01:47:53;26.17;;;20.23;;
2674;SDS011;1347;42.122;24.746;2024-03-17T01:50:19;27.63;;;18.90;;
2674;SDS011;1347;42.122;24.746;2024-03-17T01:52:50;28.93;;;18.80;;
2674;SDS011;1347;42.122;24.746;2024-03-17T01:55:17;26.13;;;20.50;;
2674;SDS011;1347;42.122;24.746;2024-03-17T01:57:44;25.53;;;21.20;;
2674;SDS011;1347;42.122;24.746;2024-03-17T02:00:10;24.27;;;20.23;;
2674;SDS011;1347;42.122;24.746;2024-03-17T02:02:39;26.53;;;19.87;;
2674;SDS011;1347;42.122;24.746;2024-03-17T02:05:07;23.30;;;18.30;;
2674;SDS011;1347;42.122;24.746;2024-03-17T02:07:35;24.50;;;19.07;;
2674;SDS011;1347;42.122;24.746;2024-03-17T02:10:01;24.67;;;20.17;;
2674;SDS011;1347;42.122;24.746;2024-03-17T02:12:30;23.47;;;20.07;;
2674;SDS011;1347;42.122;24.746;2024-03-17T02:14:57;34.53;;;20.23;;
2674;SDS011;1347;42.122;24.746;2024-03-17T02:17:23;28.13;;;20.57;;
2674;SDS011;1347;42.122;24.746;2024-03-17T02:19:50;28.90;;;20.67;;
2674;SDS011;1347;42.122;24.746;2024-03-17T02:22:19;30.27;;;20.73;;
2674;SDS011;1347;42.122;24.746;2024-03-17T02:24:45;25.33;;;18.63;;
2674;SDS011;1347;42.122;24.746;2024-03-17T02:27:12;28.43;;;19.63;;
2674;SDS011;1347;42.122;24.746;2024-03-17T02:29:38;28.03;;;21.10;;
2674;SDS011;1347;42.122;24.746;2024-03-17T02:32:05;31.37;;;20.43;;
2674;SDS011;1347;42.122;24.746;2024-03-17T02:34:32;25.90;;;20.17;;
2674;SDS011;1347;42.122;24.746;2024-03-17T02:36:59;29.00;;;20.17;;
2674;SDS011;1347;42.122;24.746;2024-03-17T02:39:27;31.30;;;21.70;;
2674;SDS011;1347;42.122;24.746;2024-03-17T02:42:03;30.10;;;20.53;;
2674;SDS011;1347;42.122;24.746;2024-03-17T02:44:31;27.20;;;20.57;;
2674;SDS011;1347;42.122;24.746;2024-03-17T02:46:58;26.47;;;19.70;;
2674;SDS011;1347;42.122;24.746;2024-03-17T02:49:25;25.30;;;19.93;;
2674;SDS011;1347;42.122;24.746;2024-03-17T02:51:53;35.60;;;23.50;;
2674;SDS011;1347;42.122;24.746;2024-03-17T02:54:20;28.53;;;21.53;;
2674;SDS011;1347;42.122;24.746;2024-03-17T02:56:48;31.10;;;20.50;;
2674;SDS011;1347;42.122;24.746;2024-03-17T02:59:16;32.50;;;22.40;;
2674;SDS011;1347;42.122;24.746;2024-03-17T03:01:43;31.40;;;20.90;;
2674;SDS011;1347;42.122;24.746;2024-03-17T03:04:11;26.73;;;20.30;;
2674;SDS011;1347;42.122;24.746;2024-03-17T03:06:38;27.63;;;20.20;;
2674;SDS011;1347;42.122;24.746;2024-03-17T03:09:04;30.80;;;22.00;;
2674;SDS011;1347;42.122;24.746;2024-03-17T03:11:37;25.87;;;18.80;;
2674;SDS011;1347;42.122;24.746;2024-03-17T03:14:06;26.23;;;20.47;;
2674;SDS011;1347;42.122;24.746;2024-03-17T03:16:32;30.67;;;20.80;;
2674;SDS011;1347;42.122;24.746;2024-03-17T03:19:00;26.17;;;20.60;;
2674;SDS011;1347;42.122;24.746;2024-03-17T03:21:27;26.40;;;19.57;;
2674;SDS011;1347;42.122;24.746;2024-03-17T03:23:53;33.10;;;21.90;;
2674;SDS011;1347;42.122;24.746;2024-03-17T03:26:20;27.23;;;19.60;;
2674;SDS011;1347;42.122;24.746;2024-03-17T03:28:48;32.37;;;23.70;;
2674;SDS011;1347;42.122;24.746;2024-03-17T03:31:17;34.30;;;23.87;;
2674;SDS011;1347;42.122;24.746;2024-03-17T03:33:44;28.93;;;22.50;;
2674;SDS011;1347;42.122;24.746;2024-03-17T03:36:11;32.90;;;23.50;;
2674;SDS011;1347;42.122;24.746;2024-03-17T03:38:39;32.23;;;23.50;;
2674;SDS011;1347;42.122;24.746;2024-03-17T03:41:07;31.33;;;23.83;;
2674;SDS011;1347;42.122;24.746;2024-03-17T03:43:35;29.73;;;23.50;;
2674;SDS011;1347;42.122;24.746;2024-03-17T03:46:03;34.10;;;25.00;;
2674;SDS011;1347;42.122;24.746;2024-03-17T03:48:32;27.50;;;23.87;;
2674;SDS011;1347;42.122;24.746;2024-03-17T03:51:02;29.20;;;23.17;;
2674;SDS011;1347;42.122;24.746;2024-03-17T03:53:31;34.23;;;23.10;;
2674;SDS011;1347;42.122;24.746;2024-03-17T03:55:58;35.03;;;24.70;;
2674;SDS011;1347;42.122;24.746;2024-03-17T03:58:26;31.20;;;24.67;;
2674;SDS011;1347;42.122;24.746;2024-03-17T04:00:54;29.37;;;24.40;;
2674;SDS011;1347;42.122;24.746;2024-03-17T04:03:20;29.23;;;23.67;;
2674;SDS011;1347;42.122;24.746;2024-03-17T04:05:49;33.47;;;25.00;;
2674;SDS011;1347;42.122;24.746;2024-03-17T04:08:18;33.33;;;24.10;;
2674;SDS011;1347;42.122;24.746;2024-03-17T04:10:45;31.80;;;22.97;;
2674;SDS011;1347;42.122;24.746;2024-03-17T04:13:12;32.87;;;23.13;;
2674;SDS011;1347;42.122;24.746;2024-03-17T04:15:39;29.20;;;23.30;;
2674;SDS011;1347;42.122;24.746;2024-03-17T04:18:06;32.97;;;23.60;;
2674;SDS011;1347;42.122;24.746;2024-03-17T04:20:33;29.00;;;23.53;;
2674;SDS011;1347;42.122;24.746;2024-03-17T04:23:01;31.83;;;23.43;;
2674;SDS011;1347;42.122;24.746;2024-03-17T04:25:28;33.97;;;25.60;;
2674;SDS011;1347;42.122;24.746;2024-03-17T04:27:55;33.13;;;22.50;;
2674;SDS011;1347;42.122;24.746;2024-03-17T04:30:23;33.87;;;24.50;;
2674;SDS011;1347;42.122;24.746;2024-03-17T04:32:50;33.43;;;23.73;;
2674;SDS011;1347;42.122;24.746;2024-03-17T04:35:17;32.70;;;21.67;;
2674;SDS011;1347;42.122;24.746;2024-03-17T04:37:44;36.10;;;22.70;;
2674;SDS011;1347;42.122;24.746;2024-03-17T04:40:13;30.23;;;22.60;;
2674;SDS011;1347;42.122;24.746;2024-03-17T04:42:39;33.97;;;25.10;;
2674;SDS011;1347;42.122;24.746;2024-03-17T04:45:07;32.40;;;21.57;;
2674;SDS011;1347;42.122;24.746;2024-03-17T04:47:35;32.43;;;23.53;;
2674;SDS011;1347;42.122;24.746;2024-03-17T04:50:03;32.43;;;23.17;;
2674;SDS011;1347;42.122;24.746;2024-03-17T04:52:31;35.67;;;23.67;;
2674;SDS011;1347;42.122;24.746;2024-03-17T04:54:58;31.93;;;24.13;;
2674;SDS011;1347;42.122;24.746;2024-03-17T04:57:26;29.40;;;23.27;;
2674;SDS011;1347;42.122;24.746;2024-03-17T04:59:53;35.53;;;25.23;;
2674;SDS011;1347;42.122;24.746;2024-03-17T05:02:20;31.80;;;22.30;;
2674;SDS011;1347;42.122;24.746;2024-03-17T05:04:48;32.47;;;24.63;;
2674;SDS011;1347;42.122;24.746;2024-03-17T05:07:15;32.73;;;24.10;;
2674;SDS011;1347;42.122;24.746;2024-03-17T05:09:42;31.50;;;24.40;;
2674;SDS011;1347;42.122;24.746;2024-03-17T05:12:09;43.40;;;25.03;;
2674;SDS011;1347;42.122;24.746;2024-03-17T05:14:38;34.30;;;22.97;;
2674;SDS011;1347;42.122;24.746;2024-03-17T05:17:06;40.83;;;21.50;;
2674;SDS011;1347;42.122;24.746;2024-03-17T05:19:33;35.03;;;24.13;;
2674;SDS011;1347;42.122;24.746;2024-03-17T05:22:00;31.50;;;23.23;;
2674;SDS011;1347;42.122;24.746;2024-03-17T05:24:26;32.03;;;22.97;;
2674;SDS011;1347;42.122;24.746;2024-03-17T05:26:53;32.47;;;23.30;;
2674;SDS011;1347;42.122;24.746;2024-03-17T05:29:20;31.00;;;23.87;;
2674;SDS011;1347;42.122;24.746;2024-03-17T05:31:49;32.23;;;25.10;;
2674;SDS011;1347;42.122;24.746;2024-03-17T05:34:16;33.80;;;26.27;;
2674;SDS011;1347;42.122;24.746;2024-03-17T05:36:43;30.10;;;24.20;;
2674;SDS011;1347;42.122;24.746;2024-03-17T05:39:12;32.53;;;23.80;;
2674;SDS011;1347;42.122;24.746;2024-03-17T05:41:39;33.23;;;23.80;;
2674;SDS011;1347;42.122;24.746;2024-03-17T05:44:06;33.63;;;24.87;;
2674;SDS011;1347;42.122;24.746;2024-03-17T05:46:33;34.13;;;23.70;;
2674;SDS011;1347;42.122;24.746;2024-03-17T05:49:01;31.20;;;23.03;;
2674;SDS011;1347;42.122;24.746;2024-03-17T05:51:29;34.60;;;24.20;;
2674;SDS011;1347;42.122;24.746;2024-03-17T05:53:56;37.30;;;23.50;;
2674;SDS011;1347;42.122;24.746;2024-03-17T05:56:23;31.97;;;24.67;;
2674;SDS011;1347;42.122;24.746;2024-03-17T05:58:50;31.63;;;22.37;;
2674;SDS011;1347;42.122;24.746;2024-03-17T06:01:17;26.63;;;22.17;;
2674;SDS011;1347;42.122;24.746;2024-03-17T06:03:44;28.17;;;21.40;;
2674;SDS011;1347;42.122;24.746;2024-03-17T06:06:12;23.37;;;18.20;;
2674;SDS011;1347;42.122;24.746;2024-03-17T06:08:40;27.60;;;19.40;;
2674;SDS011;1347;42.122;24.746;2024-03-17T06:11:07;28.87;;;18.90;;
2674;SDS011;1347;42.122;24.746;2024-03-17T06:13:34;20.50;;;16.10;;
2674;SDS011;1347;42.122;24.746;2024-03-17T06:16:02;21.37;;;16.83;;
2674;SDS011;1347;42.122;24.746;2024-03-17T06:18:30;19.87;;;16.17;;
2674;SDS011;1347;42.122;24.746;2024-03-17T06:20:57;21.40;;;17.90;;
2674;SDS011;1347;42.122;24.746;2024-03-17T06:23:25;24.90;;;16.57;;
2674;SDS011;1347;42.122;24.746;2024-03-17T06:25:55;25.03;;;18.20;;
2674;SDS011;1347;42.122;24.746;2024-03-17T06:28:22;23.73;;;17.20;;
2674;SDS011;1347;42.122;24.746;2024-03-17T06:30:54;27.97;;;18.97;;
2674;SDS011;1347;42.122;24.746;2024-03-17T06:33:24;24.93;;;19.00;;
2674;SDS011;1347;42.122;24.746;2024-03-17T06:35:51;24.40;;;18.07;;
2674;SDS011;1347;42.122;24.746;2024-03-17T06:38:18;24.90;;;18.33;;
2674;SDS011;1347;42.122;24.746;2024-03-17T06:40:50;23.83;;;18.47;;
2674;SDS011;1347;42.122;24.746;2024-03-17T06:43:18;27.10;;;19.93;;
2674;SDS011;1347;42.122;24.746;2024-03-17T06:45:53;20.70;;;17.37;;
2674;SDS011;1347;42.122;24.746;2024-03-17T06:48:21;30.80;;;21.97;;
2674;SDS011;1347;42.122;24.746;2024-03-17T06:50:48;25.90;;;22.30;;
2674;SDS011;1347;42.122;24.746;2024-03-17T06:53:16;30.83;;;20.57;;
2674;SDS011;1347;42.122;24.746;2024-03-17T06:55:43;27.97;;;20.90;;
2674;SDS011;1347;42.122;24.746;2024-03-17T06:58:12;25.30;;;19.90;;
2674;SDS011;1347;42.122;24.746;2024-03-17T07:00:39;30.10;;;23.00;;
2674;SDS011;1347;42.122;24.746;2024-03-17T07:03:09;25.43;;;21.57;;
2674;SDS011;1347;42.122;24.746;2024-03-17T07:05:36;26.53;;;21.90;;
2674;SDS011;1347;42.122;24.746;2024-03-17T07:08:03;27.93;;;21.50;;
2674;SDS011;1347;42.122;24.746;2024-03-17T07:10:31;32.40;;;23.07;;
2674;SDS011;1347;42.122;24.746;2024-03-17T07:12:58;29.47;;;23.97;;
2674;SDS011;1347;42.122;24.746;2024-03-17T07:15:26;31.67;;;24.10;;
2674;SDS011;1347;42.122;24.746;2024-03-17T07:17:53;30.50;;;25.50;;
2674;SDS011;1347;42.122;24.746;2024-03-17T07:20:20;34.03;;;24.90;;
2674;SDS011;1347;42.122;24.746;2024-03-17T07:22:48;32.63;;;26.00;;
2674;SDS011;1347;42.122;24.746;2024-03-17T07:25:15;33.03;;;25.03;;
2674;SDS011;1347;42.122;24.746;2024-03-17T07:27:42;30.60;;;24.33;;
2674;SDS011;1347;42.122;24.746;2024-03-17T07:30:09;31.47;;;24.33;;
2674;SDS011;1347;42.122;24.746;2024-03-17T07:32:38;25.67;;;22.90;;
2674;SDS011;1347;42.122;24.746;2024-03-17T07:35:05;25.37;;;21.17;;
2674;SDS011;1347;42.122;24.746;2024-03-17T07:37:32;25.50;;;22.90;;
2674;SDS011;1347;42.122;24.746;2024-03-17T07:39:59;25.20;;;21.33;;
2674;SDS011;1347;42.122;24.746;2024-03-17T07:42:26;21.77;;;19.47;;
2674;SDS011;1347;42.122;24.746;2024-03-17T07:44:53;23.10;;;20.20;;
2674;SDS011;1347;42.122;24.746;2024-03-17T07:47:20;28.43;;;20.70;;
2674;SDS011;1347;42.122;24.746;2024-03-17T07:49:48;21.87;;;19.63;;
2674;SDS011;1347;42.122;24.746;2024-03-17T07:52:15;25.27;;;19.70;;
2674;SDS011;1347;42.122;24.746;2024-03-17T07:54:42;22.97;;;19.20;;
2674;SDS011;1347;42.122;24.746;2024-03-17T07:57:11;22.67;;;18.53;;
2674;SDS011;1347;42.122;24.746;2024-03-17T07:59:39;20.73;;;18.53;;
2674;SDS011;1347;42.122;24.746;2024-03-17T08:02:07;21.27;;;19.03;;
2674;SDS011;1347;42.122;24.746;2024-03-17T08:04:34;22.50;;;20.07;;
2674;SDS011;1347;42.122;24.746;2024-03-17T08:07:04;21.77;;;19.33;;
2674;SDS011;1347;42.122;24.746;2024-03-17T08:09:31;23.50;;;20.97;;
2674;SDS011;1347;42.122;24.746;2024-03-17T08:11:58;22.20;;;19.73;;
2674;SDS011;1347;42.122;24.746;2024-03-17T08:14:25;24.80;;;20.77;;
2674;SDS011;1347;42.122;24.746;2024-03-17T08:16:52;19.30;;;17.50;;
2674;SDS011;1347;42.122;24.746;2024-03-17T08:19:19;20.77;;;18.47;;
2674;SDS011;1347;42.122;24.746;2024-03-17T08:21:46;19.67;;;17.80;;
2674;SDS011;1347;42.122;24.746;2024-03-17T08:24:14;19.23;;;17.33;;
2674;SDS011;1347;42.122;24.746;2024-03-17T08:26:41;18.20;;;16.30;;
2674;SDS011;1347;42.122;24.746;2024-03-17T08:29:10;19.43;;;17.53;;
2674;SDS011;1347;42.122;24.746;2024-03-17T08:31:37;20.53;;;17.80;;
2674;SDS011;1347;42.122;24.746;2024-03-17T08:34:04;21.17;;;18.77;;
2674;SDS011;1347;42.122;24.746;2024-03-17T08:36:31;20.53;;;18.30;;
2674;SDS011;1347;42.122;24.746;2024-03-17T08:38:58;20.77;;;18.70;;
2674;SDS011;1347;42.122;24.746;2024-03-17T08:41:28;21.63;;;18.67;;
2674;SDS011;1347;42.122;24.746;2024-03-17T08:43:56;22.67;;;20.23;;
2674;SDS011;1347;42.122;24.746;2024-03-17T08:46:24;23.17;;;18.27;;
2674;SDS011;1347;42.122;24.746;2024-03-17T08:48:50;22.33;;;18.20;;
2674;SDS011;1347;42.122;24.746;2024-03-17T08:51:17;23.30;;;20.40;;
2674;SDS011;1347;42.122;24.746;2024-03-17T08:53:44;23.87;;;21.00;;
2674;SDS011;1347;42.122;24.746;2024-03-17T08:56:12;23.53;;;21.23;;
2674;SDS011;1347;42.122;24.746;2024-03-17T08:58:40;22.83;;;20.63;;
2674;SDS011;1347;42.122;24.746;2024-03-17T09:01:07;22.90;;;20.60;;
2674;SDS011;1347;42.122;24.746;2024-03-17T09:03:34;23.80;;;20.00;;
2674;SDS011;1347;42.122;24.746;2024-03-17T09:06:01;22.70;;;20.30;;
2674;SDS011;1347;42.122;24.746;2024-03-17T09:08:29;22.23;;;19.87;;
2674;SDS011;1347;42.122;24.746;2024-03-17T09:10:58;20.63;;;18.63;;
2674;SDS011;1347;42.122;24.746;2024-03-17T09:13:24;20.77;;;18.67;;
2674;SDS011;1347;42.122;24.746;2024-03-17T09:15:53;18.63;;;16.77;;
2674;SDS011;1347;42.122;24.746;2024-03-17T09:18:23;20.87;;;18.77;;
2674;SDS011;1347;42.122;24.746;2024-03-17T09:20:57;20.63;;;18.53;;
2674;SDS011;1347;42.122;24.746;2024-03-17T09:23:25;20.67;;;18.53;;
2674;SDS011;1347;42.122;24.746;2024-03-17T09:25:56;22.80;;;19.40;;
2674;SDS011;1347;42.122;24.746;2024-03-17T09:28:24;22.70;;;20.37;;
2674;SDS011;1347;42.122;24.746;2024-03-17T09:30:51;23.87;;;19.60;;
2674;SDS011;1347;42.122;24.746;2024-03-17T09:33:20;19.80;;;17.87;;
2674;SDS011;1347;42.122;24.746;2024-03-17T09:35:54;22.80;;;20.27;;
2674;SDS011;1347;42.122;24.746;2024-03-17T09:38:22;20.90;;;18.90;;
2674;SDS011;1347;42.122;24.746;2024-03-17T09:40:49;18.70;;;16.57;;
2674;SDS011;1347;42.122;24.746;2024-03-17T09:43:18;19.97;;;17.80;;
2674;SDS011;1347;42.122;24.746;2024-03-17T09:45:46;20.27;;;18.27;;
2674;SDS011;1347;42.122;24.746;2024-03-17T09:48:14;19.07;;;16.77;;
2674;SDS011;1347;42.122;24.746;2024-03-17T09:50:45;17.17;;;15.43;;
2674;SDS011;1347;42.122;24.746;2024-03-17T09:53:17;21.00;;;15.90;;
2674;SDS011;1347;42.122;24.746;2024-03-17T09:55:50;18.27;;;16.53;;
2674;SDS011;1347;42.122;24.746;2024-03-17T09:58:18;16.30;;;14.83;;
2674;SDS011;1347;42.122;24.746;2024-03-17T10:00:45;18.33;;;16.47;;
2674;SDS011;1347;42.122;24.746;2024-03-17T10:03:38;18.37;;;16.70;;
2674;SDS011;1347;42.122;24.746;2024-03-17T10:06:09;18.93;;;16.43;;
2674;SDS011;1347;42.122;24.746;2024-03-17T10:08:42;19.33;;;17.43;;
2674;SDS011;1347;42.122;24.746;2024-03-17T10:11:11;18.47;;;16.77;;
2674;SDS011;1347;42.122;24.746;2024-03-17T10:13:40;19.53;;;17.73;;
2674;SDS011;1347;42.122;24.746;2024-03-17T10:16:17;18.67;;;17.07;;
2674;SDS011;1347;42.122;24.746;2024-03-17T10:18:47;18.90;;;17.30;;
2674;SDS011;1347;42.122;24.746;2024-03-17T10:21:24;18.43;;;16.20;;
2674;SDS011;1347;42.122;24.746;2024-03-17T10:24:04;19.03;;;17.33;;
2674;SDS011;1347;42.122;24.746;2024-03-17T10:26:33;18.33;;;16.57;;
2674;SDS011;1347;42.122;24.746;2024-03-17T10:29:02;21.20;;;19.00;;
2674;SDS011;1347;42.122;24.746;2024-03-17T10:31:29;20.10;;;18.10;;
2674;SDS011;1347;42.122;24.746;2024-03-17T10:34:00;17.30;;;15.90;;
2674;SDS011;1347;42.122;24.746;2024-03-17T10:36:29;17.17;;;15.77;;
2674;SDS011;1347;42.122;24.746;2024-03-17T10:38:57;17.07;;;15.60;;
2674;SDS011;1347;42.122;24.746;2024-03-17T10:41:24;16.60;;;15.30;;
2674;SDS011;1347;42.122;24.746;2024-03-17T10:43:54;18.13;;;16.57;;
2674;SDS011;1347;42.122;24.746;2024-03-17T10:46:21;17.30;;;15.70;;
2674;SDS011;1347;42.122;24.746;2024-03-17T10:48:52;15.57;;;14.13;;
2674;SDS011;1347;42.122;24.746;2024-03-17T10:51:20;15.17;;;13.77;;
2674;SDS011;1347;42.122;24.746;2024-03-17T10:53:48;15.57;;;14.37;;
2674;SDS011;1347;42.122;24.746;2024-03-17T10:56:18;17.80;;;16.30;;
2674;SDS011;1347;42.122;24.746;2024-03-17T10:58:46;16.77;;;14.80;;
2674;SDS011;1347;42.122;24.746;2024-03-17T11:01:22;18.00;;;16.30;;
2674;SDS011;1347;42.122;24.746;2024-03-17T11:03:50;19.63;;;17.73;;
2674;SDS011;1347;42.122;24.746;2024-03-17T11:06:18;19.17;;;17.23;;
2674;SDS011;1347;42.122;24.746;2024-03-17T11:08:45;19.53;;;17.57;;
2674;SDS011;1347;42.122;24.746;2024-03-17T11:11:14;21.00;;;16.90;;
2674;SDS011;1347;42.122;24.746;2024-03-17T11:14:15;14.50;;;13.20;;
2674;SDS011;1347;42.122;24.746;2024-03-17T11:16:43;14.20;;;12.80;;
2674;SDS011;1347;42.122;24.746;2024-03-17T11:19:12;15.27;;;13.97;;
2674;SDS011;1347;42.122;24.746;2024-03-17T11:21:42;16.53;;;13.57;;
2674;SDS011;1347;42.122;24.746;2024-03-17T11:24:17;14.57;;;13.17;;
2674;SDS011;1347;42.122;24.746;2024-03-17T11:26:47;14.83;;;13.53;;
2674;SDS011;1347;42.122;24.746;2024-03-17T11:29:26;13.63;;;12.43;;
2674;SDS011;1347;42.122;24.746;2024-03-17T11:31:54;12.00;;;11.00;;
2674;SDS011;1347;42.122;24.746;2024-03-17T11:34:28;13.40;;;11.80;;
2674;SDS011;1347;42.122;24.746;2024-03-17T11:36:59;12.00;;;10.93;;
2674;SDS011;1347;42.122;24.746;2024-03-17T11:39:47;18.53;;;11.50;;
2674;SDS011;1347;42.122;24.746;2024-03-17T11:42:22;13.17;;;11.97;;
2674;SDS011;1347;42.122;24.746;2024-03-17T11:45:00;13.97;;;12.67;;
2674;SDS011;1347;42.122;24.746;2024-03-17T11:47:38;12.33;;;11.23;;
2674;SDS011;1347;42.122;24.746;2024-03-17T11:50:08;13.10;;;11.90;;
2674;SDS011;1347;42.122;24.746;2024-03-17T11:52:36;16.10;;;13.10;;
2674;SDS011;1347;42.122;24.746;2024-03-17T11:55:05;14.60;;;13.13;;
2674;SDS011;1347;42.122;24.746;2024-03-17T11:57:42;12.47;;;11.00;;
2674;SDS011;1347;42.122;24.746;2024-03-17T12:00:18;13.30;;;12.03;;
2674;SDS011;1347;42.122;24.746;2024-03-17T12:02:47;12.23;;;11.13;;
2674;SDS011;1347;42.122;24.746;2024-03-17T12:05:15;13.37;;;12.17;;
2674;SDS011;1347;42.122;24.746;2024-03-17T12:07:42;13.53;;;12.20;;
2674;SDS011;1347;42.122;24.746;2024-03-17T12:10:09;14.63;;;11.60;;
2674;SDS011;1347;42.122;24.746;2024-03-17T12:12:36;13.87;;;12.50;;
2674;SDS011;1347;42.122;24.746;2024-03-17T12:15:11;14.03;;;12.23;;
2674;SDS011;1347;42.122;24.746;2024-03-17T12:17:42;13.00;;;11.77;;
2674;SDS011;1347;42.122;24.746;2024-03-17T12:20:15;12.50;;;11.40;;
2674;SDS011;1347;42.122;24.746;2024-03-17T12:22:43;11.77;;;10.77;;
2674;SDS011;1347;42.122;24.746;2024-03-17T12:25:16;12.17;;;11.00;;
2674;SDS011;1347;42.122;24.746;2024-03-17T12:27:43;10.57;;;9.53;;
2674;SDS011;1347;42.122;24.746;2024-03-17T12:30:13;8.50;;;7.80;;
2674;SDS011;1347;42.122;24.746;2024-03-17T12:32:40;9.80;;;7.83;;
2674;SDS011;1347;42.122;24.746;2024-03-17T12:35:11;9.43;;;8.53;;
2674;SDS011;1347;42.122;24.746;2024-03-17T12:37:39;8.73;;;7.90;;
2674;SDS011;1347;42.122;24.746;2024-03-17T12:40:06;9.17;;;8.33;;
2674;SDS011;1347;42.122;24.746;2024-03-17T12:42:47;8.43;;;7.73;;
2674;SDS011;1347;42.122;24.746;2024-03-17T12:45:18;8.27;;;7.57;;
2674;SDS011;1347;42.122;24.746;2024-03-17T12:47:47;8.30;;;7.60;;
2674;SDS011;1347;42.122;24.746;2024-03-17T12:50:14;9.07;;;8.27;;
2674;SDS011;1347;42.122;24.746;2024-03-17T12:52:46;6.63;;;6.03;;
2674;SDS011;1347;42.122;24.746;2024-03-17T12:55:18;7.17;;;6.57;;
2674;SDS011;1347;42.122;24.746;2024-03-17T12:58:06;7.20;;;6.70;;
2674;SDS011;1347;42.122;24.746;2024-03-17T13:01:00;7.50;;;6.83;;
2674;SDS011;1347;42.122;24.746;2024-03-17T13:03:30;9.13;;;7.20;;
2674;SDS011;1347;42.122;24.746;2024-03-17T13:05:59;7.53;;;6.83;;
2674;SDS011;1347;42.122;24.746;2024-03-17T13:08:27;7.70;;;7.00;;
2674;SDS011;1347;42.122;24.746;2024-03-17T13:10:56;7.50;;;6.40;;
2674;SDS011;1347;42.122;24.746;2024-03-17T13:13:22;7.43;;;6.23;;
2674;SDS011;1347;42.122;24.746;2024-03-17T13:15:49;7.20;;;6.50;;
2674;SDS011;1347;42.122;24.746;2024-03-17T13:18:18;6.77;;;6.17;;
2674;SDS011;1347;42.122;24.746;2024-03-17T13:20:46;6.90;;;6.20;;
2674;SDS011;1347;42.122;24.746;2024-03-17T13:23:14;7.70;;;7.00;;
2674;SDS011;1347;42.122;24.746;2024-03-17T13:25:42;9.60;;;7.00;;
2674;SDS011;1347;42.122;24.746;2024-03-17T13:28:10;7.37;;;6.70;;
2674;SDS011;1347;42.122;24.746;2024-03-17T13:30:37;12.00;;;7.77;;
2674;SDS011;1347;42.122;24.746;2024-03-17T13:33:05;7.40;;;6.60;;
2674;SDS011;1347;42.122;24.746;2024-03-17T13:35:36;8.63;;;7.63;;
2674;SDS011;1347;42.122;24.746;2024-03-17T13:38:06;7.87;;;6.70;;
2674;SDS011;1347;42.122;24.746;2024-03-17T13:40:39;9.33;;;6.53;;
2674;SDS011;1347;42.122;24.746;2024-03-17T13:43:07;7.53;;;6.70;;
2674;SDS011;1347;42.122;24.746;2024-03-17T13:45:37;7.87;;;7.10;;
2674;SDS011;1347;42.122;24.746;2024-03-17T13:48:05;6.90;;;6.30;;
2674;SDS011;1347;42.122;24.746;2024-03-17T13:50:37;9.30;;;7.03;;
2674;SDS011;1347;42.122;24.746;2024-03-17T13:53:07;12.00;;;6.93;;
2674;SDS011;1347;42.122;24.746;2024-03-17T13:55:34;6.57;;;5.97;;
2674;SDS011;1347;42.122;24.746;2024-03-17T13:58:01;7.50;;;6.30;;
2674;SDS011;1347;42.122;24.746;2024-03-17T14:00:29;6.90;;;6.30;;
2674;SDS011;1347;42.122;24.746;2024-03-17T14:02:59;8.00;;;7.20;;
2674;SDS011;1347;42.122;24.746;2024-03-17T14:05:26;7.50;;;6.73;;
2674;SDS011;1347;42.122;24.746;2024-03-17T14:07:55;58.10;;;10.67;;
2674;SDS011;1347;42.122;24.746;2024-03-17T14:10:22;22.23;;;9.13;;
2674;SDS011;1347;42.122;24.746;2024-03-17T14:12:50;7.60;;;6.87;;
2674;SDS011;1347;42.122;24.746;2024-03-17T14:15:18;7.20;;;6.50;;
2674;SDS011;1347;42.122;24.746;2024-03-17T14:17:46;7.23;;;6.53;;
2674;SDS011;1347;42.122;24.746;2024-03-17T14:20:15;8.00;;;7.20;;
2674;SDS011;1347;42.122;24.746;2024-03-17T14:22:43;8.43;;;7.53;;
2674;SDS011;1347;42.122;24.746;2024-03-17T14:25:14;8.80;;;6.20;;
2674;SDS011;1347;42.122;24.746;2024-03-17T14:27:42;9.70;;;6.93;;
2674;SDS011;1347;42.122;24.746;2024-03-17T14:30:10;8.47;;;7.17;;
2674;SDS011;1347;42.122;24.746;2024-03-17T14:32:40;10.07;;;7.70;;
2674;SDS011;1347;42.122;24.746;2024-03-17T14:35:08;8.83;;;7.67;;
2674;SDS011;1347;42.122;24.746;2024-03-17T14:37:40;8.87;;;7.97;;
2674;SDS011;1347;42.122;24.746;2024-03-17T14:40:08;8.50;;;7.23;;
2674;SDS011;1347;42.122;24.746;2024-03-17T14:42:43;6.70;;;6.10;;
2674;SDS011;1347;42.122;24.746;2024-03-17T14:45:10;8.47;;;7.60;;
2674;SDS011;1347;42.122;24.746;2024-03-17T14:47:37;8.63;;;7.73;;